Terminal Aerodrome Forecast
Issued by NWS

Home | Current Version | Previous Version | Text Only | Print | Product List | Glossary On
Versions: 1 2 3 4 5 6 7 8 9 10 11 12 13 14 15 16 17 18 19 20 21 22 23 24 25 26 27 28 29 30 31 32 33 34 35
000
FTUS45 KLKN 211700
TAFEKO
TAF
KEKO 211720Z 2118/2218 VRB06KT P6SM VCSH BKN100
     FM212000 25013G23KT P6SM VCTS BKN100CB
     FM220300 VRB04KT P6SM SCT100
     FM221700 26015G25KT P6SM VCTS BKN100CB=

USA.gov is the U.S. government's official web portal to all federal, state and local government web resources and services.